Time;durP1;ratioP1;P1;durP2;ratioP2;P2;SDS_P1;SDS_P2;PMS_P1;PMS_P2;Temp;Humidity;BMP_temperature;BMP_pressure;BME280_temperature;BME280_humidity;BME280_pressure;Samples;Min_cycle;Max_cycle;Signal;HPM_P1;HPM_P2
2021/05/09 09:44:09;;;;;;;3.90;2.20;;;21.80;71.50;;;;;;6208811;22;20025;-74
2021/05/09 09:46:37;;;;;;;4.57;2.00;;;21.90;71.80;;;;;;6213807;23;20019;-66
2021/05/09 09:49:17;;;;;;;4.45;2.10;;;21.90;71.70;;;;;;6213415;23;20000;-70
2021/05/09 09:51:54;;;;;;;3.55;2.60;;;21.80;72.00;;;;;;6210985;23;20001;-72
2021/05/09 09:54:33;;;;;;;5.10;2.25;;;21.80;72.20;;;;;;6207772;23;20375;-71
2021/05/09 09:56:59;;;;;;;6.35;1.73;;;21.90;72.60;;;;;;6210788;23;20024;-70
2021/05/09 09:59:25;;;;;;;6.35;2.50;;;21.80;72.70;;;;;;6212704;23;20000;-69
2021/05/09 10:01:51;;;;;;;3.15;2.00;;;21.70;73.00;;;;;;6212985;23;20063;-69
2021/05/09 10:04:16;;;;;;;3.35;2.60;;;21.60;73.90;;;;;;6211882;23;20011;-70
2021/05/09 10:06:42;;;;;;;3.58;2.58;;;21.50;74.00;;;;;;6213553;23;20005;-69
2021/05/09 10:09:09;;;;;;;3.97;2.22;;;21.40;73.10;;;;;;6213165;23;19997;-71
2021/05/09 10:11:36;;;;;;;3.08;2.25;;;21.40;73.50;;;;;;6212176;23;20422;-68
2021/05/09 10:14:02;;;;;;;4.15;2.17;;;21.40;74.30;;;;;;6213318;23;20070;-71
2021/05/09 10:16:30;;;;;;;2.85;1.77;;;21.50;73.90;;;;;;6213464;23;20325;-70
2021/05/09 10:19:08;;;;;;;3.92;2.10;;;21.50;74.00;;;;;;6212398;23;20007;-70
2021/05/09 10:21:37;;;;;;;4.03;1.98;;;21.70;73.10;;;;;;6213517;23;20007;-70
2021/05/09 10:24:22;;;;;;;3.20;2.33;;;21.80;73.30;;;;;;6211707;23;20008;-71
2021/05/09 10:27:08;;;;;;;3.15;1.92;;;22.00;73.30;;;;;;6211172;23;20050;-71
2021/05/09 10:29:37;;;;;;;3.20;2.22;;;22.20;72.90;;;;;;6211810;23;20088;-70
2021/05/09 10:32:18;;;;;;;3.45;2.20;;;22.20;72.50;;;;;;6212680;23;20059;-71
2021/05/09 10:34:56;;;;;;;3.15;2.40;;;22.40;72.30;;;;;;6213413;23;20491;-70
2021/05/09 10:37:42;;;;;;;2.42;2.05;;;22.40;72.40;;;;;;6213521;23;20008;-71
2021/05/09 10:40:40;;;;;;;3.58;2.38;;;22.50;71.60;;;;;;6210853;23;20009;-72
2021/05/09 10:43:08;;;;;;;2.45;2.10;;;22.50;71.90;;;;;;6212541;23;20016;-73
2021/05/09 10:45:35;;;;;;;2.78;2.03;;;22.60;71.70;;;;;;6211571;23;20099;-73
2021/05/09 10:48:16;;;;;;;5.88;2.47;;;22.70;71.60;;;;;;6210151;23;20005;-72
2021/05/09 10:50:46;;;;;;;4.70;2.10;;;22.80;71.30;;;;;;6212967;23;20088;-73
2021/05/09 10:53:30;;;;;;;7.38;2.70;;;23.00;70.90;;;;;;6211846;23;20062;-73
2021/05/09 10:55:57;;;;;;;3.10;2.38;;;23.30;69.50;;;;;;6210498;23;20009;-72
2021/05/09 10:58:49;;;;;;;3.20;2.15;;;23.50;69.40;;;;;;6213037;23;20045;-74
2021/05/09 11:01:20;;;;;;;4.53;2.20;;;23.60;68.70;;;;;;6212035;23;20028;-73
2021/05/09 11:03:50;;;;;;;3.53;2.60;;;23.60;68.30;;;;;;6211626;23;19997;-73
2021/05/09 11:06:20;;;;;;;4.22;2.10;;;23.50;68.10;;;;;;6212859;23;20067;-75
2021/05/09 11:08:51;;;;;;;5.45;2.17;;;23.40;68.30;;;;;;6210800;23;20036;-80
2021/05/09 11:11:22;;;;;;;2.83;2.22;;;23.30;68.80;;;;;;6210879;23;20011;-71
2021/05/09 11:13:57;;;;;;;4.25;2.60;;;23.20;69.30;;;;;;6212247;23;20008;-72
2021/05/09 11:16:30;;;;;;;2.40;2.20;;;23.00;69.80;;;;;;6212492;23;20005;-72
2021/05/09 11:19:06;;;;;;;3.72;2.53;;;22.80;70.10;;;;;;6212594;23;20441;-73
2021/05/09 11:21:44;;;;;;;4.43;2.83;;;22.80;70.80;;;;;;6214167;23;20085;-74
2021/05/09 11:24:11;;;;;;;3.55;2.50;;;22.80;71.20;;;;;;6213125;23;20000;-73
2021/05/09 11:26:39;;;;;;;3.20;2.58;;;22.90;70.70;;;;;;6214635;23;20051;-71
2021/05/09 11:29:08;;;;;;;5.65;2.47;;;22.90;70.10;;;;;;6212593;23;20004;-69
2021/05/09 11:31:44;;;;;;;6.53;3.80;;;23.00;69.80;;;;;;6213165;23;20088;-69
2021/05/09 11:34:11;;;;;;;3.65;2.47;;;23.00;70.00;;;;;;6214372;23;20023;-68
2021/05/09 11:36:38;;;;;;;4.07;2.28;;;23.10;69.70;;;;;;6212386;23;20104;-70
2021/05/09 11:39:11;;;;;;;6.40;3.92;;;23.10;69.80;;;;;;6213158;23;20005;-72
2021/05/09 11:41:57;;;;;;;6.47;3.70;;;23.30;69.90;;;;;;6214791;23;20001;-68
2021/05/09 11:44:29;;;;;;;3.20;2.67;;;23.30;69.50;;;;;;6213526;23;20047;-70
2021/05/09 11:46:56;;;;;;;6.90;3.80;;;23.40;69.20;;;;;;6214854;23;20314;-72
2021/05/09 11:49:33;;;;;;;3.72;2.28;;;23.40;68.80;;;;;;6213985;23;20075;-70
2021/05/09 11:52:04;;;;;;;6.90;2.75;;;23.50;69.20;;;;;;6213105;23;20008;-71
2021/05/09 11:54:35;;;;;;;5.15;2.90;;;23.40;69.40;;;;;;6214978;23;20001;-71
2021/05/09 11:57:02;;;;;;;2.85;2.53;;;23.40;69.50;;;;;;6211933;23;20036;-74
2021/05/09 11:59:32;;;;;;;3.88;2.60;;;23.30;69.70;;;;;;6214504;23;20036;-72
2021/05/09 12:02:04;;;;;;;4.60;2.47;;;23.20;69.80;;;;;;6212792;23;20008;-68
2021/05/09 12:04:30;;;;;;;4.43;2.50;;;23.10;70.10;;;;;;6213891;23;19996;-73
2021/05/09 12:07:00;;;;;;;2.67;2.38;;;22.90;70.90;;;;;;6214750;23;20012;-72
2021/05/09 12:09:28;;;;;;;4.25;2.33;;;22.70;72.10;;;;;;6213384;23;20012;-71
2021/05/09 12:11:54;;;;;;;3.20;2.30;;;22.50;72.50;;;;;;6213823;23;20036;-73
2021/05/09 12:14:20;;;;;;;3.75;2.00;;;22.40;73.00;;;;;;6212492;23;20030;-73
2021/05/09 12:16:47;;;;;;;4.07;1.92;;;22.30;73.70;;;;;;6214631;23;20016;-72
2021/05/09 12:19:12;;;;;;;4.25;2.65;;;22.30;74.00;;;;;;6211637;23;20063;-76
2021/05/09 12:21:39;;;;;;;2.65;2.42;;;22.20;73.80;;;;;;6213000;23;20372;-69
2021/05/09 12:24:06;;;;;;;4.95;2.38;;;22.20;73.80;;;;;;6212558;23;20047;-73
2021/05/09 12:26:35;;;;;;;2.75;2.10;;;22.20;73.60;;;;;;6210439;23;20015;-70
2021/05/09 12:29:18;;;;;;;5.07;2.25;;;22.20;74.10;;;;;;6213841;23;20007;-70
2021/05/09 12:31:43;;;;;;;4.88;2.13;;;22.20;73.60;;;;;;6213409;23;19997;-69
2021/05/09 12:34:10;;;;;;;4.55;2.50;;;22.20;73.40;;;;;;6209203;23;20012;-69
2021/05/09 12:36:38;;;;;;;4.13;2.15;;;22.30;73.10;;;;;;6212794;23;20095;-70
2021/05/09 12:39:18;;;;;;;4.03;2.35;;;22.30;73.10;;;;;;6212817;23;20007;-68
2021/05/09 12:41:53;;;;;;;4.10;2.28;;;22.40;73.00;;;;;;6213120;23;20007;-75
2021/05/09 12:44:23;;;;;;;6.70;2.70;;;22.50;72.90;;;;;;6213058;23;20023;-69
2021/05/09 12:46:49;;;;;;;4.90;2.20;;;22.50;73.00;;;;;;6212844;23;20009;-66
2021/05/09 12:49:18;;;;;;;3.05;1.83;;;22.50;73.30;;;;;;6213856;23;20014;-67
2021/05/09 12:51:54;;;;;;;5.50;2.72;;;22.40;73.20;;;;;;6213871;23;20426;-67
2021/05/09 12:54:50;;;;;;;3.63;2.47;;;22.40;73.70;;;;;;6213707;23;20059;-69
2021/05/09 12:57:20;;;;;;;2.92;2.35;;;22.40;74.20;;;;;;6188763;23;20023;-68
2021/05/09 13:00:01;;;;;;;2.58;2.30;;;22.40;74.10;;;;;;6211698;23;19996;-67
2021/05/09 13:02:29;;;;;;;5.40;2.22;;;22.30;73.70;;;;;;6212478;23;20425;-65
2021/05/09 13:05:03;;;;;;;4.35;2.25;;;22.40;73.20;;;;;;6213689;23;20329;-66
2021/05/09 13:07:28;;;;;;;3.90;2.13;;;22.60;73.50;;;;;;6211868;23;20099;-68
2021/05/09 13:09:54;;;;;;;4.35;2.40;;;22.80;72.70;;;;;;6213359;23;20074;-67
2021/05/09 13:12:20;;;;;;;3.28;2.22;;;23.10;71.90;;;;;;6213618;23;20047;-68
2021/05/09 13:14:49;;;;;;;3.83;2.28;;;23.40;70.80;;;;;;6212798;23;20421;-67
2021/05/09 13:17:16;;;;;;;6.38;2.45;;;23.80;70.20;;;;;;6213210;23;20099;-71
2021/05/09 13:19:42;;;;;;;3.60;2.13;;;24.10;69.20;;;;;;6212492;23;20425;-68
2021/05/09 13:22:10;;;;;;;5.75;2.10;;;24.40;68.80;;;;;;6213153;23;20001;-67
2021/05/09 13:24:36;;;;;;;4.30;2.13;;;24.70;68.30;;;;;;6213393;23;20090;-73
2021/05/09 13:27:02;;;;;;;4.88;2.03;;;24.90;68.30;;;;;;6213626;23;20298;-75
2021/05/09 13:29:28;;;;;;;5.10;2.10;;;25.10;67.50;;;;;;6213012;23;20486;-73
2021/05/09 13:31:54;;;;;;;4.90;2.42;;;25.30;66.60;;;;;;6212469;23;19996;-72
2021/05/09 13:34:19;;;;;;;3.13;2.03;;;25.40;66.30;;;;;;6211640;23;20405;-68
2021/05/09 13:36:46;;;;;;;4.43;2.15;;;25.50;65.80;;;;;;6212558;23;20051;-69
2021/05/09 13:39:12;;;;;;;3.00;1.95;;;25.60;64.80;;;;;;6211874;23;20058;-70
2021/05/09 13:41:38;;;;;;;3.33;2.00;;;25.70;63.50;;;;;;6213059;23;20329;-68
2021/05/09 13:44:04;;;;;;;3.28;1.58;;;25.90;63.90;;;;;;6213488;23;20015;-72
2021/05/09 13:46:30;;;;;;;5.75;2.50;;;25.90;62.90;;;;;;6212290;23;20035;-70
2021/05/09 13:48:56;;;;;;;5.20;2.20;;;25.90;63.30;;;;;;6211432;23;20000;-69
2021/05/09 13:51:22;;;;;;;3.00;1.92;;;25.80;64.00;;;;;;6212066;23;20083;-71
2021/05/09 13:53:47;;;;;;;5.10;1.83;;;25.90;63.60;;;;;;6210720;23;20005;-69
2021/05/09 13:56:13;;;;;;;5.32;2.05;;;26.00;63.80;;;;;;6210533;23;20016;-68
2021/05/09 13:58:39;;;;;;;2.92;2.03;;;26.10;63.00;;;;;;6211787;23;20012;-69
2021/05/09 14:01:05;;;;;;;3.53;2.10;;;26.30;62.70;;;;;;6211462;23;20008;-69
2021/05/09 14:03:30;;;;;;;6.35;2.10;;;26.50;62.10;;;;;;6212818;23;20004;-68
2021/05/09 14:05:56;;;;;;;4.85;2.10;;;26.60;62.20;;;;;;6211146;23;20004;-72
2021/05/09 14:08:22;;;;;;;7.20;2.10;;;26.60;61.40;;;;;;6213720;23;20000;-71
2021/05/09 14:10:48;;;;;;;2.45;1.65;;;26.70;60.80;;;;;;6211238;23;20413;-68
2021/05/09 14:13:15;;;;;;;6.97;2.17;;;26.80;61.00;;;;;;6213165;23;20028;-68
2021/05/09 14:15:41;;;;;;;4.13;2.03;;;26.80;60.00;;;;;;6211596;23;20000;-71
2021/05/09 14:18:07;;;;;;;4.97;2.20;;;26.70;60.00;;;;;;6212313;23;20017;-68
2021/05/09 14:20:34;;;;;;;2.72;2.00;;;26.60;60.30;;;;;;6211861;23;20358;-69
2021/05/09 14:22:59;;;;;;;2.40;1.95;;;26.60;60.20;;;;;;6213563;23;20321;-68
2021/05/09 14:25:25;;;;;;;5.97;1.90;;;26.60;60.50;;;;;;6210950;23;20000;-68
2021/05/09 14:27:50;;;;;;;4.22;1.90;;;26.50;60.30;;;;;;6213357;23;20019;-70
2021/05/09 14:30:16;;;;;;;2.15;1.73;;;26.50;60.80;;;;;;6212942;23;20001;-72
2021/05/09 14:32:42;;;;;;;4.38;2.00;;;26.30;59.90;;;;;;6212396;23;20011;-72
2021/05/09 14:35:09;;;;;;;4.18;2.03;;;26.20;59.40;;;;;;6213651;23;20005;-72
2021/05/09 14:37:35;;;;;;;4.07;2.30;;;26.20;59.10;;;;;;6213150;23;20078;-70
2021/05/09 14:40:00;;;;;;;5.72;1.75;;;26.10;59.20;;;;;;6212475;23;20306;-74
2021/05/09 14:42:26;;;;;;;1.95;1.50;;;26.20;59.20;;;;;;6213327;23;20065;-72
2021/05/09 14:44:52;;;;;;;5.03;1.80;;;26.20;58.10;;;;;;6213551;23;20008;-74
2021/05/09 14:47:18;;;;;;;4.07;2.00;;;26.20;57.80;;;;;;6212427;23;20047;-68
2021/05/09 14:49:46;;;;;;;3.20;1.80;;;26.30;57.60;;;;;;6211697;23;20029;-68
2021/05/09 14:52:11;;;;;;;4.47;1.70;;;26.30;57.30;;;;;;6213050;23;20004;-67
2021/05/09 14:54:37;;;;;;;4.15;1.70;;;26.20;57.70;;;;;;6213503;23;20422;-68
2021/05/09 14:57:05;;;;;;;5.22;2.00;;;26.20;57.30;;;;;;6213352;23;20059;-72
2021/05/09 14:59:31;;;;;;;4.72;1.80;;;26.10;57.40;;;;;;6212448;23;20395;-67
2021/05/09 15:01:56;;;;;;;4.15;1.58;;;26.10;57.90;;;;;;6213754;23;20031;-68
2021/05/09 15:04:23;;;;;;;4.57;1.77;;;26.00;57.50;;;;;;6214652;23;20023;-71
2021/05/09 15:06:49;;;;;;;2.95;1.77;;;26.10;57.70;;;;;;6212725;23;20106;-69
2021/05/09 15:09:15;;;;;;;4.18;2.10;;;26.30;57.60;;;;;;6213783;23;20409;-72
2021/05/09 15:11:40;;;;;;;6.75;1.65;;;26.60;57.60;;;;;;6215415;23;20002;-71
2021/05/09 15:14:06;;;;;;;2.95;1.88;;;26.80;57.10;;;;;;6214175;23;19997;-69
2021/05/09 15:16:31;;;;;;;3.25;2.20;;;26.90;56.30;;;;;;6213492;23;20038;-69
2021/05/09 15:18:57;;;;;;;4.70;2.13;;;26.80;56.60;;;;;;6215044;23;20076;-72
2021/05/09 15:21:22;;;;;;;2.60;2.17;;;26.60;55.60;;;;;;6212672;23;20001;-69
2021/05/09 15:23:48;;;;;;;3.88;2.17;;;26.50;56.10;;;;;;6214820;23;20015;-69
2021/05/09 15:26:13;;;;;;;2.88;1.80;;;26.40;57.30;;;;;;6214805;23;20012;-67
2021/05/09 15:28:39;;;;;;;4.18;1.90;;;26.40;57.00;;;;;;6212592;23;20000;-67
2021/05/09 15:31:05;;;;;;;6.60;2.28;;;26.30;56.90;;;;;;6214830;23;20005;-69
2021/05/09 15:33:31;;;;;;;4.55;1.90;;;26.20;57.70;;;;;;6214589;23;20356;-69
2021/05/09 15:35:56;;;;;;;4.18;2.10;;;26.10;57.90;;;;;;6214161;23;20028;-70
2021/05/09 15:38:22;;;;;;;5.50;1.98;;;26.00;57.80;;;;;;6215177;23;20008;-68
2021/05/09 15:40:48;;;;;;;2.53;1.98;;;26.00;57.60;;;;;;6214385;23;20074;-70
2021/05/09 15:43:13;;;;;;;2.67;1.90;;;26.00;57.30;;;;;;6213634;23;20012;-70
2021/05/09 15:45:39;;;;;;;5.35;2.00;;;26.00;57.30;;;;;;6214773;23;20000;-68
2021/05/09 15:48:05;;;;;;;2.53;1.95;;;26.00;57.50;;;;;;6214860;23;20372;-69
2021/05/09 15:50:30;;;;;;;4.60;1.75;;;26.20;58.40;;;;;;6213680;23;20000;-67
2021/05/09 15:52:56;;;;;;;5.68;1.83;;;26.50;58.50;;;;;;6213999;23;20051;-68
2021/05/09 15:55:22;;;;;;;4.38;2.53;;;26.70;57.40;;;;;;6213438;23;20004;-67
2021/05/09 15:57:50;;;;;;;4.57;2.50;;;26.90;57.90;;;;;;6212741;23;20021;-69
2021/05/09 16:00:17;;;;;;;3.90;2.85;;;27.00;57.90;;;;;;6213607;23;20001;-69
2021/05/09 16:02:42;;;;;;;11.00;3.53;;;27.00;57.80;;;;;;6213636;23;20016;-70
2021/05/09 16:05:09;;;;;;;3.45;2.40;;;27.00;58.00;;;;;;6213470;23;20001;-68
2021/05/09 16:07:34;;;;;;;4.28;2.20;;;26.90;58.40;;;;;;6215075;23;20005;-71
2021/05/09 16:10:00;;;;;;;3.25;1.80;;;26.80;58.00;;;;;;6213796;23;20317;-72
2021/05/09 16:12:25;;;;;;;5.18;2.50;;;26.70;58.00;;;;;;6214559;23;20059;-72
2021/05/09 16:14:53;;;;;;;6.18;2.58;;;26.70;58.70;;;;;;6214591;23;20005;-70
2021/05/09 16:17:19;;;;;;;3.22;2.25;;;26.50;59.00;;;;;;6213047;23;20429;-70
2021/05/09 16:19:47;;;;;;;3.75;2.10;;;26.50;58.80;;;;;;6214246;23;20000;-70
2021/05/09 16:22:13;;;;;;;2.90;1.63;;;26.30;59.30;;;;;;6212594;23;20437;-71
2021/05/09 16:24:39;;;;;;;2.53;1.73;;;26.20;59.60;;;;;;6213624;23;19997;-73
2021/05/09 16:27:04;;;;;;;4.60;2.03;;;26.40;59.40;;;;;;6214360;23;20429;-71
2021/05/09 16:29:30;;;;;;;4.18;1.85;;;26.70;59.00;;;;;;6214685;23;20005;-71
2021/05/09 16:31:56;;;;;;;4.22;1.88;;;27.30;58.60;;;;;;6186949;23;20012;-73
2021/05/09 16:34:21;;;;;;;4.45;2.55;;;28.00;56.00;;;;;;6211787;23;20055;-70
2021/05/09 16:36:47;;;;;;;2.08;1.80;;;28.10;56.40;;;;;;6213032;23;20088;-70
2021/05/09 16:39:12;;;;;;;4.53;2.42;;;28.00;55.90;;;;;;6212143;23;20428;-71
2021/05/09 16:41:38;;;;;;;6.55;2.30;;;27.80;56.60;;;;;;6212429;23;20005;-71
2021/05/09 16:44:04;;;;;;;2.80;1.70;;;27.50;56.30;;;;;;6212745;23;20008;-71
2021/05/09 16:46:29;;;;;;;2.90;1.88;;;27.10;56.70;;;;;;6213464;23;20011;-71
2021/05/09 16:48:55;;;;;;;4.53;2.22;;;26.80;57.10;;;;;;6211249;23;20009;-76
2021/05/09 16:51:21;;;;;;;4.03;2.30;;;26.50;56.70;;;;;;6213837;23;20000;-68
2021/05/09 16:53:55;;;;;;;6.78;2.95;;;26.20;57.70;;;;;;6213383;23;19996;-67
2021/05/09 16:56:21;;;;;;;7.22;2.97;;;26.00;58.40;;;;;;6212180;23;20008;-70
2021/05/09 16:58:47;;;;;;;5.43;2.55;;;25.80;58.00;;;;;;6213078;23;20066;-68
2021/05/09 17:01:14;;;;;;;4.15;2.40;;;25.70;58.50;;;;;;6213098;23;20003;-70
2021/05/09 17:03:41;;;;;;;5.53;2.53;;;25.60;58.50;;;;;;6212163;23;20004;-69
2021/05/09 17:06:07;;;;;;;3.13;2.22;;;25.50;58.80;;;;;;6210905;23;20001;-70
2021/05/09 17:08:32;;;;;;;3.22;1.85;;;25.50;59.50;;;;;;6212064;23;20016;-70
2021/05/09 17:10:58;;;;;;;2.65;1.95;;;25.40;58.90;;;;;;6213775;23;20409;-69
2021/05/09 17:13:26;;;;;;;3.67;2.53;;;25.40;59.40;;;;;;6212408;23;20001;-69
2021/05/09 17:15:52;;;;;;;4.82;2.45;;;25.30;59.20;;;;;;6213893;23;20007;-69
2021/05/09 17:18:18;;;;;;;3.80;2.75;;;25.20;59.30;;;;;;6211457;23;20016;-69
2021/05/09 17:20:44;;;;;;;4.22;2.45;;;25.10;59.60;;;;;;6211628;23;20056;-70
2021/05/09 17:23:10;;;;;;;4.07;2.83;;;25.00;60.30;;;;;;6211921;23;20004;-70
2021/05/09 17:25:35;;;;;;;5.70;2.90;;;24.90;60.90;;;;;;6212473;23;20009;-69
2021/05/09 17:28:01;;;;;;;6.18;2.83;;;24.80;60.80;;;;;;6212886;23;20079;-69
2021/05/09 17:30:28;;;;;;;6.93;2.90;;;24.70;60.90;;;;;;6214006;23;20003;-70
2021/05/09 17:32:54;;;;;;;9.40;3.22;;;24.70;60.70;;;;;;6213692;23;20373;-69
2021/05/09 17:35:21;;;;;;;5.38;3.10;;;24.60;61.30;;;;;;6212698;23;20026;-68
2021/05/09 17:37:48;;;;;;;5.13;2.67;;;24.50;61.20;;;;;;6213448;23;20008;-70
2021/05/09 17:40:15;;;;;;;3.22;2.80;;;24.40;61.60;;;;;;6211890;23;20008;-70
2021/05/09 17:42:41;;;;;;;4.90;3.10;;;24.30;62.80;;;;;;6212015;23;20012;-72
2021/05/09 17:45:07;;;;;;;5.30;2.40;;;24.20;62.50;;;;;;6213692;23;20001;-68
2021/05/09 17:47:33;;;;;;;4.45;2.50;;;24.10;63.30;;;;;;6212874;23;20000;-69
2021/05/09 17:50:00;;;;;;;5.13;2.58;;;24.00;63.40;;;;;;6211447;23;20055;-65
2021/05/09 17:52:26;;;;;;;8.23;2.70;;;24.00;63.90;;;;;;6213441;23;20004;-68
2021/05/09 17:54:53;;;;;;;5.82;2.72;;;24.00;64.30;;;;;;6212555;23;20335;-67
2021/05/09 17:57:19;;;;;;;4.50;2.92;;;23.90;63.60;;;;;;6213432;23;20463;-65
2021/05/09 17:59:44;;;;;;;5.72;3.00;;;23.90;64.00;;;;;;6211496;23;20005;-66
2021/05/09 18:02:10;;;;;;;5.63;3.55;;;23.80;63.50;;;;;;6212190;23;20008;-66
2021/05/09 18:04:35;;;;;;;4.70;3.30;;;23.80;63.60;;;;;;6213016;23;20007;-65
2021/05/09 18:07:01;;;;;;;5.15;3.28;;;23.70;63.20;;;;;;6211589;23;20028;-66
2021/05/09 18:09:28;;;;;;;6.18;3.10;;;23.70;63.30;;;;;;6211233;23;20045;-64
2021/05/09 18:11:55;;;;;;;8.68;3.60;;;23.60;63.00;;;;;;6213053;23;20004;-65
2021/05/09 18:14:23;;;;;;;7.03;3.30;;;23.60;63.20;;;;;;6213181;23;20024;-65
2021/05/09 18:19:37;;;;;;;6.68;3.20;;;23.40;64.20;;;;;;6223662;23;20009;-69
2021/05/09 18:24:47;;;;;;;5.82;2.88;;;23.30;66.10;;;;;;6212413;23;20016;-68
2021/05/09 18:27:13;;;;;;;6.82;3.35;;;23.10;68.00;;;;;;6212419;23;20005;-66
2021/05/09 18:29:39;;;;;;;7.95;3.60;;;23.00;69.80;;;;;;6211818;23;20025;-65
2021/05/09 18:32:06;;;;;;;5.00;3.05;;;22.90;71.20;;;;;;6210117;23;20500;-65
2021/05/09 18:34:31;;;;;;;5.72;3.22;;;22.80;70.50;;;;;;6209369;23;20116;-65
2021/05/09 18:36:57;;;;;;;6.65;3.03;;;22.70;71.10;;;;;;6209364;23;20048;-66
2021/05/09 18:39:23;;;;;;;5.18;3.35;;;22.60;71.80;;;;;;6210616;23;20008;-66
2021/05/09 18:41:48;;;;;;;4.15;2.67;;;22.50;71.90;;;;;;6211360;23;20638;-66
2021/05/09 18:44:15;;;;;;;6.00;2.90;;;22.40;70.30;;;;;;6208818;23;20040;-66
2021/05/09 18:46:41;;;;;;;4.28;2.65;;;22.30;70.90;;;;;;6211417;23;20004;-66
2021/05/09 18:49:07;;;;;;;3.78;2.80;;;22.30;70.80;;;;;;6210538;23;20004;-66
2021/05/09 18:51:32;;;;;;;6.05;2.80;;;22.20;69.20;;;;;;6208186;23;20005;-68
2021/05/09 18:53:58;;;;;;;4.82;2.78;;;22.20;69.40;;;;;;6211210;23;20000;-68
2021/05/09 18:56:23;;;;;;;5.25;2.47;;;22.20;68.30;;;;;;6210892;23;20100;-66
2021/05/09 18:58:49;;;;;;;5.25;2.50;;;22.20;67.30;;;;;;6210386;23;20012;-68
2021/05/09 19:01:14;;;;;;;3.97;2.35;;;22.20;66.80;;;;;;6211089;23;20009;-66
2021/05/09 19:03:41;;;;;;;4.95;2.80;;;22.20;65.80;;;;;;6210748;23;20036;-65
2021/05/09 19:06:17;;;;;;;4.18;2.17;;;22.30;65.60;;;;;;6210844;23;19996;-66
2021/05/09 19:08:43;;;;;;;5.38;2.30;;;22.30;65.00;;;;;;6210648;23;20013;-67
2021/05/09 19:11:09;;;;;;;5.47;2.72;;;22.30;64.90;;;;;;6213238;23;19996;-68
2021/05/09 19:13:36;;;;;;;3.92;2.33;;;22.30;64.50;;;;;;6214312;23;20004;-68
2021/05/09 19:16:01;;;;;;;3.85;2.10;;;22.20;65.00;;;;;;6214951;23;20023;-70
2021/05/09 19:18:27;;;;;;;5.47;2.60;;;22.20;66.00;;;;;;6215411;23;20421;-65
2021/05/09 19:20:53;;;;;;;2.95;2.00;;;22.10;65.80;;;;;;6214354;23;20001;-67
2021/05/09 19:23:18;;;;;;;4.00;2.20;;;22.00;65.90;;;;;;6213190;23;20009;-65
2021/05/09 19:25:44;;;;;;;3.85;2.30;;;21.90;66.80;;;;;;6214700;23;20271;-67
2021/05/09 19:28:09;;;;;;;2.53;2.00;;;21.80;68.30;;;;;;6212733;23;20000;-65
2021/05/09 19:30:35;;;;;;;5.32;2.28;;;21.60;69.30;;;;;;6214734;23;20009;-65
2021/05/09 19:33:00;;;;;;;3.83;2.60;;;21.50;68.90;;;;;;6215321;23;20001;-71
2021/05/09 19:35:26;;;;;;;2.90;2.50;;;21.30;70.30;;;;;;6214315;23;20004;-69
2021/05/09 19:37:52;;;;;;;4.20;2.55;;;21.30;71.60;;;;;;6215224;23;20012;-68
2021/05/09 19:40:18;;;;;;;3.45;2.42;;;21.10;71.70;;;;;;6214980;23;20007;-65
2021/05/09 19:42:44;;;;;;;5.82;2.45;;;21.00;73.10;;;;;;6214444;23;20333;-68
2021/05/09 19:45:10;;;;;;;4.25;2.95;;;20.90;72.40;;;;;;6214739;23;20004;-68
2021/05/09 19:47:38;;;;;;;3.25;2.53;;;20.80;73.20;;;;;;6214406;23;20074;-64
2021/05/09 19:50:10;;;;;;;4.50;3.33;;;20.80;75.00;;;;;;6215317;23;20003;-66
2021/05/09 19:52:36;;;;;;;;;;;20.70;75.10;;;;;;6213322;23;20050;-67
2021/05/09 19:55:02;;;;;;;5.22;3.95;;;20.60;74.80;;;;;;6212675;23;19899;-70
2021/05/09 19:57:28;;;;;;;4.70;3.72;;;20.50;75.70;;;;;;6215391;23;20051;-68
2021/05/09 19:59:53;;;;;;;4.75;3.45;;;20.40;77.30;;;;;;6213451;23;19996;-68
2021/05/09 20:02:19;;;;;;;7.43;4.07;;;20.30;78.30;;;;;;6212559;23;20444;-63
2021/05/09 20:04:44;;;;;;;4.38;3.67;;;20.20;78.80;;;;;;6213140;23;20453;-65
2021/05/09 20:07:10;;;;;;;6.60;3.90;;;20.10;79.60;;;;;;6214944;23;20425;-65
2021/05/09 20:09:36;;;;;;;4.40;3.70;;;20.00;80.40;;;;;;6212221;23;20023;-65
2021/05/09 20:12:03;;;;;;;4.97;3.92;;;19.90;81.00;;;;;;6214586;23;20005;-65
2021/05/09 20:14:28;;;;;;;5.63;4.70;;;19.80;81.70;;;;;;6214741;23;20079;-65
2021/05/09 20:16:54;;;;;;;7.32;5.78;;;19.70;82.40;;;;;;6214091;23;20036;-65
2021/05/09 20:19:19;;;;;;;9.82;7.53;;;19.60;83.00;;;;;;6214691;23;20020;-64
2021/05/09 20:21:45;;;;;;;9.10;8.05;;;19.50;83.20;;;;;;6212908;23;20138;-67
2021/05/09 20:24:11;;;;;;;10.93;9.02;;;19.40;83.70;;;;;;6213880;23;20424;-68
2021/05/09 20:26:38;;;;;;;11.30;9.00;;;19.30;84.00;;;;;;6214381;23;20027;-65
2021/05/09 20:29:04;;;;;;;9.48;8.48;;;19.20;84.30;;;;;;6214391;23;20000;-66
2021/05/09 20:31:30;;;;;;;11.98;8.55;;;19.20;85.40;;;;;;6213891;23;20005;-66
2021/05/09 20:33:55;;;;;;;7.82;6.40;;;19.20;85.00;;;;;;6212122;23;20390;-69
2021/05/09 20:36:21;;;;;;;9.32;6.68;;;19.10;84.30;;;;;;6214386;23;20088;-65
2021/05/09 20:38:46;;;;;;;8.52;5.43;;;19.10;84.80;;;;;;6213677;23;20008;-68
2021/05/09 20:41:12;;;;;;;7.45;5.13;;;19.00;85.10;;;;;;6214198;23;20406;-66
2021/05/09 20:43:37;;;;;;;5.65;4.60;;;19.00;85.50;;;;;;6212087;23;20048;-64
2021/05/09 20:46:03;;;;;;;5.90;4.60;;;19.00;85.80;;;;;;6212519;23;20016;-65
2021/05/09 20:48:28;;;;;;;5.60;4.97;;;19.00;86.00;;;;;;6212764;23;20009;-67
2021/05/09 20:50:55;;;;;;;6.05;4.95;;;19.00;86.00;;;;;;6212295;23;20004;-68
2021/05/09 20:53:20;;;;;;;9.40;5.45;;;19.00;86.20;;;;;;6214436;23;20001;-69
2021/05/09 20:55:46;;;;;;;9.75;7.88;;;19.00;86.20;;;;;;6214375;23;20127;-67
2021/05/09 20:58:11;;;;;;;10.45;8.55;;;19.00;86.20;;;;;;6213354;23;20047;-65
2021/05/09 21:00:37;;;;;;;9.70;8.70;;;19.00;85.80;;;;;;6212649;23;20047;-65
2021/05/09 21:03:02;;;;;;;8.80;7.13;;;19.00;85.80;;;;;;6214228;23;20011;-66
2021/05/09 21:05:29;;;;;;;9.38;6.88;;;19.00;84.70;;;;;;6212120;23;20009;-67
2021/05/09 21:07:56;;;;;;;8.48;5.53;;;19.00;84.70;;;;;;6212916;23;20036;-65
2021/05/09 21:10:21;;;;;;;6.00;4.57;;;19.00;83.80;;;;;;6214509;23;20020;-68
2021/05/09 21:12:47;;;;;;;7.28;4.45;;;19.00;83.30;;;;;;6213287;23;20001;-66
2021/05/09 21:15:13;;;;;;;4.47;3.13;;;19.00;82.60;;;;;;6213700;23;19997;-68
2021/05/09 21:17:38;;;;;;;4.85;3.47;;;19.10;81.30;;;;;;6214040;23;20009;-65
2021/05/09 21:20:05;;;;;;;7.32;3.60;;;19.20;80.80;;;;;;6212285;23;20007;-69
2021/05/09 21:22:30;;;;;;;5.88;3.10;;;19.30;78.80;;;;;;6214628;23;20004;-65
2021/05/09 21:24:56;;;;;;;6.82;2.95;;;19.60;75.70;;;;;;6214075;23;20004;-68
2021/05/09 21:27:21;;;;;;;3.70;2.80;;;19.90;74.10;;;;;;6213319;23;20008;-68
2021/05/09 21:29:47;;;;;;;6.28;3.38;;;20.10;73.90;;;;;;6214027;23;20066;-69
2021/05/09 21:32:12;;;;;;;3.90;3.35;;;20.30;73.90;;;;;;6213865;23;20074;-67
2021/05/09 21:34:38;;;;;;;6.45;4.05;;;20.30;74.20;;;;;;6213218;23;20001;-70
2021/05/09 21:37:03;;;;;;;7.35;3.95;;;20.40;74.40;;;;;;6212441;23;20013;-73
2021/05/09 21:39:29;;;;;;;4.82;3.83;;;20.40;74.50;;;;;;6214255;23;20080;-67
2021/05/09 21:41:55;;;;;;;6.78;4.70;;;20.40;74.80;;;;;;6213079;23;20451;-68
2021/05/09 21:44:20;;;;;;;5.50;4.32;;;20.40;75.20;;;;;;6212377;23;20009;-70
2021/05/09 21:46:46;;;;;;;7.47;4.40;;;20.40;75.50;;;;;;6213996;23;20008;-70
2021/05/09 21:49:11;;;;;;;7.13;4.13;;;20.30;75.80;;;;;;6213203;23;20015;-66
2021/05/09 21:51:37;;;;;;;7.03;3.85;;;20.30;76.00;;;;;;6214212;23;20054;-70
2021/05/09 21:54:03;;;;;;;5.68;4.35;;;20.30;76.00;;;;;;6213079;23;20027;-67
2021/05/09 21:56:28;;;;;;;8.40;4.40;;;20.20;76.20;;;;;;6214180;23;20070;-67
2021/05/09 21:58:54;;;;;;;6.90;4.72;;;20.10;76.50;;;;;;6213710;23;20066;-67
2021/05/09 22:01:19;;;;;;;4.97;4.13;;;20.10;76.70;;;;;;6212911;23;20550;-67
2021/05/09 22:03:45;;;;;;;5.82;4.05;;;20.10;77.20;;;;;;6213762;23;20005;-66
2021/05/09 22:06:10;;;;;;;4.72;3.75;;;20.00;77.40;;;;;;6213873;23;20418;-68
2021/05/09 22:08:36;;;;;;;7.57;4.35;;;20.00;77.70;;;;;;6212847;23;20005;-66
2021/05/09 22:11:02;;;;;;;4.97;3.65;;;19.90;78.50;;;;;;6212269;23;20024;-66
2021/05/09 22:13:27;;;;;;;4.30;3.88;;;19.80;78.60;;;;;;6213943;23;20334;-65
2021/05/09 22:15:53;;;;;;;5.05;3.80;;;19.80;79.70;;;;;;6213236;23;20075;-65
2021/05/09 22:18:18;;;;;;;6.40;4.05;;;19.70;80.90;;;;;;6213512;23;20433;-66
2021/05/09 22:20:50;;;;;;;6.25;3.80;;;19.60;81.80;;;;;;6214031;23;20079;-66
2021/05/09 22:23:19;;;;;;;;;;;19.50;82.80;;;;;;6211924;23;20016;-67
2021/05/09 22:25:44;;;;;;;4.25;3.50;;;19.40;83.10;;;;;;6213824;23;19923;-66
2021/05/09 22:28:10;;;;;;;4.80;4.25;;;19.30;84.00;;;;;;6213969;23;20407;-64
2021/05/09 22:30:35;;;;;;;4.88;3.88;;;19.20;84.70;;;;;;6212860;23;20059;-66
2021/05/09 22:33:01;;;;;;;6.47;4.40;;;19.10;85.10;;;;;;6213876;23;20001;-66
2021/05/09 22:35:27;;;;;;;5.65;4.47;;;19.00;85.10;;;;;;6214031;23;20444;-66
2021/05/09 22:37:52;;;;;;;5.00;4.50;;;18.90;85.90;;;;;;6212486;23;20700;-69